createdAt,value
2017-04-13T00:00:05.433Z,0
2017-04-13T00:00:46.010Z,0
2017-04-13T00:01:26.592Z,0
2017-04-13T00:02:07.179Z,0
2017-04-13T00:04:40.381Z,0
2017-04-13T00:05:20.959Z,0
2017-04-13T00:06:01.539Z,0
2017-04-13T00:08:20.084Z,0
2017-04-13T00:09:00.667Z,0
2017-04-13T00:09:41.248Z,0
2017-04-13T00:10:21.877Z,0
2017-04-13T00:11:02.463Z,0
2017-04-13T00:11:43.033Z,0
2017-04-13T00:12:23.614Z,0
2017-04-13T00:13:04.298Z,0
2017-04-13T00:13:44.883Z,0
2017-04-13T00:14:25.465Z,0
2017-04-13T00:15:06.040Z,0
2017-04-13T00:15:46.618Z,0
2017-04-13T00:16:27.205Z,0
2017-04-13T00:17:07.787Z,0
2017-04-13T00:17:48.374Z,0
2017-04-13T00:18:28.961Z,0
2017-04-13T00:19:09.519Z,0
2017-04-13T00:19:50.095Z,0
2017-04-13T00:20:30.673Z,0
2017-04-13T00:21:11.263Z,0
2017-04-13T00:21:51.853Z,0
2017-04-13T00:22:32.427Z,0
2017-04-13T00:23:13.003Z,0
2017-04-13T00:23:53.584Z,0
2017-04-13T00:24:34.161Z,0
2017-04-13T00:25:14.744Z,0
2017-04-13T00:25:55.318Z,0
2017-04-13T00:26:35.904Z,0
2017-04-13T00:27:16.484Z,0
2017-04-13T00:29:49.345Z,0
2017-04-13T00:30:29.927Z,0
2017-04-13T00:31:10.515Z,0
2017-04-13T00:31:51.099Z,0
2017-04-13T00:32:31.684Z,0
2017-04-13T00:33:12.260Z,0
2017-04-13T00:33:52.853Z,0
2017-04-13T00:34:33.420Z,0
2017-04-13T00:35:14.000Z,0
2017-04-13T00:36:01.215Z,0
2017-04-13T00:36:41.791Z,0
2017-04-13T00:37:22.380Z,0
2017-04-13T00:38:02.962Z,0
2017-04-13T00:38:43.540Z,0
2017-04-13T00:39:24.117Z,0
2017-04-13T00:40:04.696Z,0
2017-04-13T00:40:45.275Z,0
2017-04-13T00:41:25.859Z,0
2017-04-13T00:42:06.444Z,0
2017-04-13T00:42:47.028Z,0
2017-04-13T00:43:27.604Z,0
2017-04-13T00:44:08.183Z,0
2017-04-13T00:44:48.763Z,0
2017-04-13T00:45:29.344Z,0
2017-04-13T00:46:09.932Z,0
2017-04-13T00:46:50.510Z,0
2017-04-13T00:47:31.094Z,0
2017-04-13T00:48:11.673Z,0
2017-04-13T00:48:52.248Z,0
2017-04-13T00:49:32.830Z,0
2017-04-13T00:50:13.401Z,0
2017-04-13T00:50:53.992Z,0
2017-04-13T00:51:34.581Z,0
2017-04-13T00:52:15.166Z,0
2017-04-13T00:52:55.743Z,0
2017-04-13T00:53:36.323Z,0
2017-04-13T00:54:16.904Z,0
2017-04-13T00:54:57.483Z,0
2017-04-13T00:57:15.443Z,0
2017-04-13T00:57:56.017Z,0
2017-04-13T00:58:36.591Z,0
2017-04-13T00:59:17.179Z,0
2017-04-13T00:59:57.753Z,0
2017-04-13T01:00:38.329Z,0
2017-04-13T01:01:18.909Z,0
2017-04-13T01:01:59.490Z,0
2017-04-13T01:02:40.063Z,0
2017-04-13T01:03:20.642Z,0
2017-04-13T01:04:01.219Z,0
2017-04-13T01:04:41.791Z,0
2017-04-13T01:05:22.372Z,0
2017-04-13T01:06:02.955Z,0
2017-04-13T01:06:43.534Z,0
2017-04-13T01:07:24.115Z,0
2017-04-13T01:08:04.701Z,0
2017-04-13T01:08:45.271Z,0
2017-04-13T01:09:25.867Z,0
2017-04-13T01:10:06.452Z,0
2017-04-13T01:10:47.033Z,0
2017-04-13T01:11:27.617Z,0
2017-04-13T01:12:08.198Z,0
2017-04-13T01:12:48.787Z,0
2017-04-13T01:13:29.367Z,0
2017-04-13T01:14:09.950Z,0
2017-04-13T01:14:50.529Z,0
2017-04-13T01:15:31.098Z,0
2017-04-13T01:16:11.675Z,0
2017-04-13T01:16:52.262Z,0
2017-04-13T01:17:32.847Z,0
2017-04-13T01:18:13.412Z,0
2017-04-13T01:18:53.994Z,0
2017-04-13T01:19:34.587Z,0
2017-04-13T01:20:15.153Z,0
2017-04-13T01:20:55.733Z,0
2017-04-13T01:21:36.318Z,0
2017-04-13T01:22:16.898Z,0
2017-04-13T01:22:57.480Z,0
2017-04-13T01:23:38.067Z,0
2017-04-13T01:24:18.649Z,0
2017-04-13T01:24:59.221Z,0
2017-04-13T01:27:37.528Z,0
2017-04-13T01:28:18.103Z,0
2017-04-13T01:28:58.701Z,0
2017-04-13T01:29:39.274Z,0
2017-04-13T01:30:19.856Z,0
2017-04-13T01:31:00.434Z,0
2017-04-13T01:31:41.015Z,0
2017-04-13T01:32:21.591Z,0
2017-04-13T01:33:02.160Z,0
2017-04-13T01:33:42.752Z,0
2017-04-13T01:34:23.328Z,0
2017-04-13T01:35:03.903Z,0
2017-04-13T01:35:44.496Z,0
2017-04-13T01:36:25.076Z,0
2017-04-13T01:37:05.663Z,0
2017-04-13T01:37:46.247Z,0
2017-04-13T01:38:26.827Z,0
2017-04-13T01:39:07.406Z,0
2017-04-13T01:39:47.994Z,0
2017-04-13T01:40:28.579Z,0
2017-04-13T01:41:09.162Z,0
2017-04-13T01:41:49.742Z,0
2017-04-13T01:42:30.338Z,0
2017-04-13T01:43:10.916Z,0
2017-04-13T01:43:51.500Z,0
2017-04-13T01:44:32.082Z,0
2017-04-13T01:45:12.674Z,0
2017-04-13T01:45:53.256Z,0
2017-04-13T01:46:33.839Z,0
2017-04-13T01:47:14.422Z,0
2017-04-13T01:47:55.008Z,0
2017-04-13T01:48:35.592Z,0
2017-04-13T01:49:16.174Z,0
2017-04-13T01:49:56.757Z,0
2017-04-13T01:50:37.344Z,0
2017-04-13T01:51:17.931Z,0
2017-04-13T01:51:58.518Z,0
2017-04-13T01:52:39.093Z,0
2017-04-13T01:53:19.678Z,0
2017-04-13T01:54:00.260Z,0
2017-04-13T01:54:40.843Z,0
2017-04-13T01:55:21.420Z,0
2017-04-13T01:56:02.004Z,0
2017-04-13T01:56:42.584Z,0
2017-04-13T01:57:23.176Z,0
2017-04-13T01:58:03.766Z,0
2017-04-13T01:58:44.351Z,0
2017-04-13T01:59:24.934Z,0
2017-04-13T02:00:05.519Z,0
2017-04-13T02:00:46.104Z,0
2017-04-13T02:01:26.683Z,0
2017-04-13T02:02:07.266Z,0
2017-04-13T02:02:47.847Z,0
2017-04-13T02:03:28.419Z,0
2017-04-13T02:04:09.017Z,0
2017-04-13T02:04:49.603Z,0
2017-04-13T02:05:30.189Z,0
2017-04-13T02:06:10.770Z,0
2017-04-13T02:06:51.352Z,0
2017-04-13T02:07:31.937Z,0
2017-04-13T02:08:12.524Z,0
2017-04-13T02:10:30.461Z,0
2017-04-13T02:11:11.050Z,0
2017-04-13T02:11:51.639Z,0
2017-04-13T02:12:32.215Z,0
2017-04-13T02:13:12.803Z,0
2017-04-13T02:13:53.383Z,0
2017-04-13T02:14:33.964Z,0
2017-04-13T02:15:14.554Z,0
2017-04-13T02:15:55.126Z,0
2017-04-13T02:16:35.710Z,0
2017-04-13T02:17:16.275Z,0
2017-04-13T02:17:56.884Z,0
2017-04-13T02:18:37.454Z,0
2017-04-13T02:19:18.025Z,0
2017-04-13T02:19:58.617Z,0
2017-04-13T02:20:39.200Z,0
2017-04-13T02:21:19.788Z,0
2017-04-13T02:22:00.365Z,0
2017-04-13T02:22:40.940Z,0
2017-04-13T02:23:21.520Z,0
2017-04-13T02:24:02.107Z,0
2017-04-13T02:24:42.679Z,0
2017-04-13T02:25:23.267Z,0
2017-04-13T02:26:03.847Z,0
2017-04-13T02:26:44.429Z,0
2017-04-13T02:27:25.015Z,0
2017-04-13T02:28:05.590Z,0
2017-04-13T02:28:46.177Z,0
2017-04-13T02:29:26.761Z,0
2017-04-13T02:30:07.353Z,0
2017-04-13T02:30:47.934Z,0
2017-04-13T02:31:28.517Z,0
2017-04-13T02:32:09.101Z,0
2017-04-13T02:32:49.680Z,0
2017-04-13T02:33:30.272Z,0
2017-04-13T02:34:10.868Z,0
2017-04-13T02:34:51.438Z,0
2017-04-13T02:35:32.011Z,0
2017-04-13T02:36:12.581Z,0
2017-04-13T02:36:53.170Z,0
2017-04-13T02:37:33.736Z,0
2017-04-13T02:38:14.318Z,0
2017-04-13T02:38:54.903Z,0
2017-04-13T02:39:35.494Z,0
2017-04-13T02:40:16.061Z,0
2017-04-13T02:40:56.637Z,0
2017-04-13T02:41:37.213Z,0
2017-04-13T02:42:17.789Z,0
2017-04-13T02:42:58.382Z,0
2017-04-13T02:43:38.956Z,0
2017-04-13T02:44:19.533Z,0
2017-04-13T02:45:00.113Z,0
2017-04-13T02:45:40.704Z,0
2017-04-13T02:46:21.299Z,0
2017-04-13T02:47:01.876Z,0
2017-04-13T02:47:42.464Z,0
2017-04-13T02:48:23.041Z,0
2017-04-13T02:49:03.629Z,0
2017-04-13T02:49:44.215Z,0
2017-04-13T02:50:24.792Z,0
2017-04-13T02:51:05.384Z,0
2017-04-13T02:51:45.968Z,0
2017-04-13T02:52:26.540Z,0
2017-04-13T02:53:07.130Z,0
2017-04-13T02:53:47.695Z,0
2017-04-13T02:54:28.274Z,0
2017-04-13T02:55:08.845Z,0
2017-04-13T02:55:49.445Z,0
2017-04-13T02:56:31.304Z,0
2017-04-13T02:57:10.955Z,0
2017-04-13T02:57:51.540Z,0
2017-04-13T03:00:09.480Z,0
2017-04-13T03:00:50.058Z,0
2017-04-13T03:01:30.643Z,0
2017-04-13T03:02:11.235Z,0
2017-04-13T03:02:51.810Z,0
2017-04-13T03:03:32.392Z,0
2017-04-13T03:04:12.970Z,0
2017-04-13T03:04:53.554Z,0
2017-04-13T03:05:34.128Z,0
2017-04-13T03:06:14.705Z,0
2017-04-13T03:06:55.294Z,0
2017-04-13T03:07:35.876Z,0
2017-04-13T03:08:16.456Z,0
2017-04-13T03:08:57.030Z,0
2017-04-13T03:09:37.619Z,0
2017-04-13T03:10:18.191Z,0
2017-04-13T03:12:46.281Z,0
2017-04-13T03:13:26.860Z,0
2017-04-13T03:14:07.441Z,0
2017-04-13T03:14:48.013Z,0
2017-04-13T03:15:44.266Z,0
2017-04-13T03:16:24.845Z,0
2017-04-13T03:17:05.426Z,0
2017-04-13T03:17:46.008Z,0
2017-04-13T03:18:26.704Z,0
2017-04-13T03:19:07.353Z,0
2017-04-13T03:19:47.923Z,0
2017-04-13T03:20:28.562Z,0
2017-04-13T03:21:09.150Z,0
2017-04-13T03:21:49.731Z,0
2017-04-13T03:22:30.442Z,0
2017-04-13T03:23:11.191Z,0
2017-04-13T03:23:51.933Z,0
2017-04-13T03:24:32.842Z,0
2017-04-13T03:25:13.690Z,0
2017-04-13T03:25:54.633Z,0
2017-04-13T03:26:35.213Z,0
2017-04-13T03:27:16.085Z,0
2017-04-13T03:27:56.868Z,0
2017-04-13T03:28:37.818Z,0
2017-04-13T03:29:18.817Z,0
2017-04-13T03:29:59.702Z,0
2017-04-13T03:30:40.912Z,0
2017-04-13T03:31:22.007Z,0
2017-04-13T03:32:02.791Z,0
2017-04-13T03:32:43.366Z,0
2017-04-13T03:33:24.248Z,0
2017-04-13T03:34:05.195Z,0
2017-04-13T03:34:45.782Z,0
2017-04-13T03:35:26.361Z,0
2017-04-13T03:36:06.949Z,0
2017-04-13T03:36:47.704Z,0
2017-04-13T03:37:28.291Z,0
2017-04-13T03:38:09.102Z,0
2017-04-13T03:38:50.052Z,0
2017-04-13T03:39:30.643Z,0
2017-04-13T03:40:11.237Z,0
2017-04-13T03:40:51.803Z,0
2017-04-13T03:41:32.494Z,0
2017-04-13T03:42:13.075Z,0
2017-04-13T03:42:53.676Z,0
2017-04-13T03:43:34.223Z,0
2017-04-13T03:44:14.852Z,0
2017-04-13T03:44:55.414Z,0
2017-04-13T03:45:36.155Z,0
2017-04-13T03:46:16.810Z,0
2017-04-13T03:46:57.394Z,0
2017-04-13T03:47:37.970Z,0
2017-04-13T03:48:18.566Z,0
2017-04-13T03:48:59.148Z,0
2017-04-13T03:49:39.738Z,0
2017-04-13T03:50:20.307Z,0
2017-04-13T03:51:00.886Z,0
2017-04-13T03:51:41.474Z,0
2017-04-13T03:52:22.051Z,0
2017-04-13T03:53:02.639Z,0
2017-04-13T03:53:43.224Z,0
2017-04-13T03:54:23.806Z,0
2017-04-13T03:55:04.395Z,0
2017-04-13T03:57:46.224Z,0
2017-04-13T03:58:26.838Z,0
2017-04-13T03:59:07.381Z,0
2017-04-13T03:59:47.962Z,0
2017-04-13T04:00:28.543Z,0
2017-04-13T04:01:09.121Z,0
2017-04-13T04:01:49.715Z,0
2017-04-13T04:02:30.291Z,0
2017-04-13T04:03:10.879Z,0
2017-04-13T04:03:52.551Z,0
2017-04-13T04:04:33.473Z,0
2017-04-13T04:05:14.061Z,0
2017-04-13T04:05:54.648Z,0
2017-04-13T04:08:12.598Z,0
2017-04-13T04:08:53.176Z,0
2017-04-13T04:09:33.755Z,0
2017-04-13T04:10:14.364Z,0
2017-04-13T04:10:54.909Z,0
2017-04-13T04:11:35.508Z,0
2017-04-13T04:12:16.081Z,0
2017-04-13T04:12:56.665Z,0
2017-04-13T04:13:47.758Z,0
2017-04-13T04:14:28.338Z,0
2017-04-13T04:15:08.920Z,0
2017-04-13T04:15:49.511Z,0
2017-04-13T04:16:30.086Z,0
2017-04-13T04:17:10.668Z,0
2017-04-13T04:17:51.240Z,0
2017-04-13T04:18:31.823Z,0
2017-04-13T04:19:12.397Z,0
2017-04-13T04:19:52.969Z,0
2017-04-13T04:20:33.559Z,0
2017-04-13T04:21:14.124Z,0
2017-04-13T04:21:54.709Z,0
2017-04-13T04:22:35.283Z,0
2017-04-13T04:23:15.871Z,0
2017-04-13T04:23:56.455Z,0
2017-04-13T04:24:37.036Z,0
2017-04-13T04:25:17.621Z,0
2017-04-13T04:25:58.207Z,0
2017-04-13T04:26:38.782Z,0
2017-04-13T04:27:19.361Z,0
2017-04-13T04:27:59.941Z,0
2017-04-13T04:28:40.528Z,5
2017-04-13T04:29:21.106Z,5
2017-04-13T04:30:01.686Z,5
2017-04-13T04:30:42.266Z,5
2017-04-13T04:31:22.847Z,5
2017-04-13T04:32:03.427Z,5
2017-04-13T04:32:44.025Z,5
2017-04-13T04:33:24.600Z,5
2017-04-13T04:34:05.190Z,5
2017-04-13T04:34:45.763Z,5
2017-04-13T04:35:26.349Z,5
2017-04-13T04:36:06.913Z,5
2017-04-13T04:37:02.416Z,5
2017-04-13T04:37:42.990Z,5
2017-04-13T04:38:23.567Z,5
2017-04-13T04:39:04.147Z,5
2017-04-13T04:39:44.724Z,10
2017-04-13T04:42:02.656Z,10
2017-04-13T04:42:43.236Z,10
2017-04-13T04:43:23.818Z,10
2017-04-13T04:44:04.398Z,10
2017-04-13T04:44:44.980Z,10
2017-04-13T04:45:25.557Z,10
2017-04-13T04:46:06.134Z,10
2017-04-13T04:46:46.721Z,10
2017-04-13T04:47:27.295Z,15
2017-04-13T04:48:22.836Z,15
2017-04-13T04:49:03.421Z,15
2017-04-13T04:49:44.001Z,15
2017-04-13T04:50:24.595Z,15
2017-04-13T04:51:05.181Z,15
2017-04-13T04:51:45.769Z,20
2017-04-13T04:52:26.347Z,20
2017-04-13T04:53:06.917Z,20
2017-04-13T04:53:47.493Z,20
2017-04-13T04:54:28.077Z,20
2017-04-13T04:55:08.665Z,20
2017-04-13T04:55:49.248Z,20
2017-04-13T04:56:29.827Z,20
2017-04-13T04:57:10.409Z,20
2017-04-13T04:57:50.994Z,20
2017-04-13T04:58:31.578Z,20
2017-04-13T04:59:12.154Z,20
2017-04-13T04:59:52.739Z,20
2017-04-13T05:00:33.316Z,20
2017-04-13T05:01:13.913Z,20
2017-04-13T05:01:54.480Z,20
2017-04-13T05:02:35.062Z,20
2017-04-13T05:03:15.646Z,15
2017-04-13T05:03:56.217Z,15
2017-04-13T05:04:36.786Z,15
2017-04-13T05:05:17.372Z,15
2017-04-13T05:05:57.943Z,15
2017-04-13T05:06:38.528Z,15
2017-04-13T05:07:19.117Z,15
2017-04-13T05:07:59.740Z,15
2017-04-13T05:08:40.280Z,15
2017-04-13T05:09:20.865Z,15
2017-04-13T05:10:01.463Z,15
2017-04-13T05:10:42.048Z,20
2017-04-13T05:11:22.632Z,20
2017-04-13T05:12:03.218Z,20
2017-04-13T05:12:43.838Z,20
2017-04-13T05:13:24.380Z,20
2017-04-13T05:14:04.962Z,20
2017-04-13T05:14:45.543Z,20
2017-04-13T05:15:26.120Z,20
2017-04-13T05:16:06.695Z,20
2017-04-13T05:16:47.276Z,20
2017-04-13T05:17:27.859Z,15
2017-04-13T05:18:08.445Z,15
2017-04-13T05:18:49.029Z,15
2017-04-13T05:19:29.603Z,15
2017-04-13T05:20:10.191Z,15
2017-04-13T05:20:50.768Z,15
2017-04-13T05:21:31.361Z,15
2017-04-13T05:22:11.950Z,15
2017-04-13T05:22:52.534Z,15
2017-04-13T05:23:33.126Z,20
2017-04-13T05:24:13.711Z,20
2017-04-13T05:24:54.287Z,20
2017-04-13T05:25:34.868Z,20
2017-04-13T05:26:15.447Z,20
2017-04-13T05:26:56.036Z,25
2017-04-13T05:27:36.605Z,20
2017-04-13T05:28:17.187Z,25
2017-04-13T05:28:57.765Z,25
2017-04-13T05:29:38.346Z,25
2017-04-13T05:30:18.933Z,30
2017-04-13T05:30:59.515Z,30
2017-04-13T05:31:40.101Z,30
2017-04-13T05:32:20.682Z,35
2017-04-13T05:34:39.224Z,35
2017-04-13T05:35:35.642Z,40
2017-04-13T05:36:16.211Z,45
2017-04-13T05:36:56.799Z,50
2017-04-13T05:37:37.387Z,50
2017-04-13T05:38:17.962Z,50
2017-04-13T05:38:58.540Z,50
2017-04-13T05:39:39.118Z,55
2017-04-13T05:40:19.698Z,60
2017-04-13T05:41:00.285Z,60
2017-04-13T05:41:40.865Z,60
2017-04-13T05:42:21.438Z,65
2017-04-13T05:43:02.020Z,65
2017-04-13T05:43:42.600Z,65
2017-04-13T05:44:23.185Z,70
2017-04-13T05:45:03.769Z,85
2017-04-13T05:45:44.353Z,95
2017-04-13T05:46:24.935Z,105
2017-04-13T05:47:05.497Z,105
2017-04-13T05:49:38.697Z,115
2017-04-13T05:50:19.283Z,115
2017-04-13T05:50:59.873Z,125
2017-04-13T05:51:40.453Z,130
2017-04-13T05:52:21.038Z,130
2017-04-13T05:53:01.619Z,130
2017-04-13T05:53:42.195Z,125
2017-04-13T05:54:22.783Z,120
2017-04-13T05:55:03.379Z,115
2017-04-13T05:55:43.953Z,105
2017-04-13T05:56:24.533Z,95
2017-04-13T05:57:05.111Z,85
2017-04-13T05:57:45.695Z,80
2017-04-13T05:58:26.271Z,80
2017-04-13T05:59:06.853Z,80
2017-04-13T05:59:47.433Z,80
2017-04-13T06:02:20.619Z,90
2017-04-13T06:03:01.206Z,85
2017-04-13T06:03:41.793Z,75
2017-04-13T06:04:22.367Z,75
2017-04-13T06:05:02.953Z,75
2017-04-13T06:05:43.541Z,80
2017-04-13T06:06:24.114Z,85
2017-04-13T06:07:04.689Z,80
2017-04-13T06:07:45.272Z,90
2017-04-13T06:08:25.847Z,110
2017-04-13T06:09:06.438Z,140
2017-04-13T06:09:47.017Z,155
2017-04-13T06:10:27.595Z,150
2017-04-13T06:11:08.173Z,135
2017-04-13T06:11:48.753Z,120
2017-04-13T06:12:29.337Z,110
2017-04-13T06:13:09.919Z,105
2017-04-13T06:13:50.504Z,110
2017-04-13T06:14:31.073Z,125
2017-04-13T06:15:11.660Z,125
2017-04-13T06:15:52.240Z,115
2017-04-13T06:16:32.820Z,115
2017-04-13T06:17:13.403Z,125
2017-04-13T06:17:53.974Z,165
2017-04-13T06:18:34.562Z,190
2017-04-13T06:19:15.140Z,180
2017-04-13T06:19:55.746Z,165
2017-04-13T06:20:36.295Z,170
2017-04-13T06:21:16.877Z,175
2017-04-13T06:22:02.408Z,165
2017-04-13T06:22:42.981Z,160
2017-04-13T06:23:23.558Z,155
2017-04-13T06:24:04.145Z,160
2017-04-13T06:24:44.720Z,190
2017-04-13T06:25:25.299Z,215
2017-04-13T06:26:05.878Z,215
2017-04-13T06:26:46.463Z,205
2017-04-13T06:27:27.046Z,180
2017-04-13T06:28:07.634Z,155
2017-04-13T06:28:48.220Z,140
2017-04-13T06:29:28.797Z,155
2017-04-13T06:30:09.379Z,175
2017-04-13T06:32:42.803Z,190
2017-04-13T06:33:23.390Z,180
2017-04-13T06:34:03.976Z,180
2017-04-13T06:34:44.571Z,205
2017-04-13T06:35:25.128Z,230
2017-04-13T06:36:05.716Z,265
2017-04-13T06:36:46.289Z,285
2017-04-13T06:37:26.874Z,300
2017-04-13T06:38:07.449Z,305
2017-04-13T06:38:48.033Z,295
2017-04-13T06:39:28.615Z,270
2017-04-13T06:40:09.199Z,250
2017-04-13T06:40:49.784Z,235
2017-04-13T06:41:30.368Z,200
2017-04-13T06:42:10.947Z,165
2017-04-13T06:42:51.532Z,145
2017-04-13T06:43:32.115Z,130
2017-04-13T06:44:12.699Z,130
2017-04-13T06:46:30.633Z,130
2017-04-13T06:47:11.218Z,125
2017-04-13T06:47:51.800Z,125
2017-04-13T06:48:32.382Z,125
2017-04-13T06:49:12.960Z,120
2017-04-13T06:49:53.543Z,115
2017-04-13T06:50:34.128Z,105
2017-04-13T06:51:14.702Z,95
2017-04-13T06:51:55.273Z,95
2017-04-13T06:52:35.867Z,100
2017-04-13T06:53:16.443Z,100
2017-04-13T06:53:57.035Z,100
2017-04-13T06:54:37.614Z,100
2017-04-13T06:55:18.195Z,100
2017-04-13T06:55:58.786Z,110
2017-04-13T06:56:39.362Z,115
2017-04-13T06:57:19.945Z,110
2017-04-13T06:58:00.531Z,100
2017-04-13T06:58:41.100Z,90
2017-04-13T06:59:21.684Z,85
2017-04-13T07:00:02.261Z,85
2017-04-13T07:00:42.848Z,85
2017-04-13T07:01:23.427Z,85
2017-04-13T07:02:04.004Z,85
2017-04-13T07:02:44.595Z,80
2017-04-13T07:03:25.169Z,75
2017-04-13T07:04:05.755Z,75
2017-04-13T07:04:46.382Z,70
2017-04-13T07:05:26.925Z,70
2017-04-13T07:06:07.502Z,70
2017-04-13T07:06:48.090Z,75
2017-04-13T07:07:28.672Z,95
2017-04-13T07:09:57.269Z,135
2017-04-13T07:10:37.853Z,125
2017-04-13T07:11:18.436Z,130
2017-04-13T07:11:59.027Z,150
2017-04-13T07:12:39.609Z,165
2017-04-13T07:13:20.190Z,160
2017-04-13T07:14:00.770Z,135
2017-04-13T07:14:41.359Z,135
2017-04-13T07:15:21.942Z,155
2017-04-13T07:16:02.520Z,165
2017-04-13T07:16:43.098Z,155
2017-04-13T07:17:23.678Z,130
2017-04-13T07:18:04.268Z,145
2017-04-13T07:18:44.842Z,170
2017-04-13T07:19:25.425Z,170
2017-04-13T07:20:06.008Z,165
2017-04-13T07:20:46.591Z,175
2017-04-13T07:21:27.174Z,200
2017-04-13T07:22:07.756Z,200
2017-04-13T07:22:48.340Z,185
2017-04-13T07:23:28.918Z,175
2017-04-13T07:24:09.499Z,175
2017-04-13T07:24:50.079Z,185
2017-04-13T07:25:30.666Z,210
2017-04-13T07:26:11.247Z,230
2017-04-13T07:26:51.836Z,225
2017-04-13T07:27:32.403Z,245
2017-04-13T07:28:12.992Z,240
2017-04-13T07:28:53.578Z,220
2017-04-13T07:29:34.161Z,205
2017-04-13T07:30:14.748Z,195
2017-04-13T07:30:55.328Z,170
2017-04-13T07:31:35.915Z,155
2017-04-13T07:32:16.498Z,165
2017-04-13T07:32:57.078Z,165
2017-04-13T07:33:37.660Z,165
2017-04-13T07:34:18.250Z,165
2017-04-13T07:34:58.833Z,170
2017-04-13T07:37:16.787Z,130
2017-04-13T07:38:11.944Z,120
2017-04-13T07:38:52.530Z,110
2017-04-13T07:39:33.111Z,105
2017-04-13T07:40:13.697Z,95
2017-04-13T07:40:54.282Z,95
2017-04-13T07:41:34.863Z,100
2017-04-13T07:42:15.449Z,100
2017-04-13T07:42:56.019Z,95
2017-04-13T07:43:36.608Z,90
2017-04-13T07:44:17.182Z,95
2017-04-13T07:44:57.759Z,105
2017-04-13T07:45:38.342Z,115
2017-04-13T07:46:18.922Z,125
2017-04-13T07:46:59.506Z,135
2017-04-13T07:47:40.083Z,145
2017-04-13T07:48:20.662Z,155
2017-04-13T07:49:01.243Z,195
2017-04-13T07:49:41.832Z,250
2017-04-13T07:50:22.407Z,280
2017-04-13T07:51:03.000Z,295
2017-04-13T07:51:43.583Z,335
2017-04-13T07:52:24.172Z,415
2017-04-13T07:53:04.755Z,500
2017-04-13T07:53:45.343Z,670
2017-04-13T07:54:25.930Z,1205
2017-04-13T07:55:06.516Z,880
2017-04-13T07:55:47.111Z,1170
2017-04-13T07:56:27.685Z,1445
2017-04-13T07:57:08.276Z,860
2017-04-13T07:57:48.869Z,685
2017-04-13T07:58:29.434Z,575
2017-04-13T07:59:10.018Z,500
2017-04-13T07:59:50.601Z,455
2017-04-13T08:00:31.182Z,405
2017-04-13T08:01:11.764Z,380
2017-04-13T08:01:52.395Z,415
2017-04-13T08:02:32.928Z,520
2017-04-13T08:03:13.510Z,550
2017-04-13T08:05:46.698Z,370
2017-04-13T08:06:27.282Z,320
2017-04-13T08:07:07.875Z,290
2017-04-13T08:07:48.455Z,280
2017-04-13T08:08:29.037Z,290
2017-04-13T08:09:09.629Z,285
2017-04-13T08:09:50.200Z,260
2017-04-13T08:10:30.789Z,240
2017-04-13T08:11:11.369Z,220
2017-04-13T08:11:51.948Z,210
2017-04-13T08:12:32.520Z,215
2017-04-13T08:13:13.108Z,245
2017-04-13T08:13:53.689Z,275
2017-04-13T08:14:34.265Z,300
2017-04-13T08:15:14.848Z,340
2017-04-13T08:15:55.437Z,390
2017-04-13T08:16:36.024Z,435
2017-04-13T08:17:16.604Z,445
2017-04-13T08:17:57.192Z,435
2017-04-13T08:18:37.776Z,440
2017-04-13T08:19:18.356Z,450
2017-04-13T08:19:58.928Z,440
2017-04-13T08:20:39.524Z,450
2017-04-13T08:21:20.086Z,475
2017-04-13T08:22:00.671Z,495
2017-04-13T08:22:41.264Z,555
2017-04-13T08:23:21.837Z,800
2017-04-13T08:24:02.416Z,650
2017-04-13T08:24:42.994Z,685
2017-04-13T08:25:23.587Z,615
2017-04-13T08:26:04.164Z,670
2017-04-13T08:26:44.740Z,655
2017-04-13T08:27:25.333Z,770
2017-04-13T08:28:05.923Z,815
2017-04-13T08:28:46.516Z,915
2017-04-13T08:29:27.100Z,940
2017-04-13T08:30:07.678Z,935
2017-04-13T08:30:48.265Z,995
2017-04-13T08:31:28.847Z,2525
2017-04-13T08:32:09.417Z,1035
2017-04-13T08:32:50.000Z,1050
2017-04-13T08:33:30.579Z,3330
2017-04-13T08:34:11.166Z,2505
2017-04-13T08:34:51.733Z,1655
2017-04-13T08:35:32.319Z,1765
2017-04-13T08:36:12.905Z,875
2017-04-13T08:36:53.496Z,1360
2017-04-13T08:37:34.091Z,780
2017-04-13T08:38:14.650Z,765
2017-04-13T08:38:55.232Z,870
2017-04-13T08:39:35.814Z,620
2017-04-13T08:40:16.395Z,505
2017-04-13T08:40:56.988Z,445
2017-04-13T08:41:37.564Z,430
2017-04-13T08:42:18.145Z,420
2017-04-13T08:43:13.644Z,480
2017-04-13T08:43:54.223Z,590
2017-04-13T08:44:34.808Z,635
2017-04-13T08:45:15.393Z,755
2017-04-13T08:45:55.983Z,970
2017-04-13T08:46:36.559Z,845
2017-04-13T08:47:17.149Z,870
2017-04-13T08:47:57.732Z,975
2017-04-13T08:48:38.316Z,805
2017-04-13T08:49:18.903Z,1525
2017-04-13T08:49:59.488Z,760
2017-04-13T08:50:40.073Z,985
2017-04-13T08:51:20.657Z,870
2017-04-13T08:52:01.243Z,1275
2017-04-13T08:52:41.869Z,1155
2017-04-13T08:53:33.907Z,3245
2017-04-13T08:54:14.493Z,885
2017-04-13T08:54:55.073Z,755
2017-04-13T08:55:35.659Z,750
2017-04-13T08:56:16.252Z,750
2017-04-13T08:56:56.834Z,680
2017-04-13T08:57:37.418Z,645
2017-04-13T08:58:18.007Z,615
2017-04-13T08:58:58.589Z,580
2017-04-13T08:59:39.178Z,585
2017-04-13T09:00:19.761Z,620
2017-04-13T09:01:00.332Z,700
2017-04-13T09:01:40.913Z,735
2017-04-13T09:02:21.503Z,745
2017-04-13T09:03:02.085Z,775
2017-04-13T09:03:42.674Z,825
2017-04-13T09:04:23.252Z,820
2017-04-13T09:05:03.835Z,840
2017-04-13T09:05:44.417Z,1030
2017-04-13T09:06:25.000Z,1060
2017-04-13T09:07:05.584Z,1060
2017-04-13T09:07:46.169Z,1085
2017-04-13T09:08:26.748Z,1095
2017-04-13T09:09:07.339Z,1045
2017-04-13T09:09:47.928Z,885
2017-04-13T09:10:28.508Z,795
2017-04-13T09:11:09.093Z,785
2017-04-13T09:11:49.683Z,780
2017-04-13T09:12:30.266Z,650
2017-04-13T09:13:10.844Z,640
2017-04-13T09:13:51.430Z,685
2017-04-13T09:14:32.014Z,730
2017-04-13T09:15:12.589Z,755
2017-04-13T09:15:53.183Z,775
2017-04-13T09:16:33.762Z,685
2017-04-13T09:17:14.342Z,675
2017-04-13T09:17:54.927Z,630
2017-04-13T09:18:35.527Z,575
2017-04-13T09:19:16.109Z,510
2017-04-13T09:19:56.698Z,460
2017-04-13T09:22:19.646Z,385
2017-04-13T09:23:00.225Z,415
2017-04-13T09:23:40.806Z,515
2017-04-13T09:24:21.402Z,570
2017-04-13T09:25:01.988Z,595
2017-04-13T09:25:42.570Z,600
2017-04-13T09:26:23.157Z,630
2017-04-13T09:27:03.725Z,670
2017-04-13T09:27:44.315Z,725
2017-04-13T09:28:24.898Z,760
2017-04-13T09:29:05.489Z,845
2017-04-13T09:29:46.069Z,915
2017-04-13T09:30:26.644Z,925
2017-04-13T09:31:07.227Z,910
2017-04-13T09:31:47.812Z,875
2017-04-13T09:32:28.386Z,795
2017-04-13T09:33:08.969Z,745
2017-04-13T09:33:49.549Z,745
2017-04-13T09:34:30.135Z,780
2017-04-13T09:35:10.721Z,820
2017-04-13T09:35:51.291Z,880
2017-04-13T09:36:31.867Z,865
2017-04-13T09:37:12.456Z,780
2017-04-13T09:37:53.029Z,715
2017-04-13T09:38:33.612Z,680
2017-04-13T09:39:14.195Z,615
2017-04-13T09:39:54.773Z,535
2017-04-13T09:40:35.356Z,500
2017-04-13T09:41:15.942Z,515
2017-04-13T09:41:56.516Z,520
2017-04-13T09:42:37.101Z,520
2017-04-13T09:43:17.691Z,495
2017-04-13T09:43:58.266Z,480
2017-04-13T09:44:38.862Z,465
2017-04-13T09:45:19.445Z,445
2017-04-13T09:46:00.030Z,430
2017-04-13T09:46:40.605Z,435
2017-04-13T09:47:21.186Z,460
2017-04-13T09:48:01.770Z,495
2017-04-13T09:48:42.353Z,500
2017-04-13T09:49:22.938Z,485
2017-04-13T09:50:03.514Z,470
2017-04-13T09:50:44.099Z,470
2017-04-13T09:51:39.469Z,480
2017-04-13T09:52:20.047Z,495
2017-04-13T09:53:00.632Z,495
2017-04-13T09:53:41.205Z,500
2017-04-13T09:54:21.784Z,530
2017-04-13T09:55:02.375Z,550
2017-04-13T09:55:42.962Z,580
2017-04-13T09:56:23.544Z,615
2017-04-13T09:57:04.115Z,650
2017-04-13T09:57:44.705Z,685
2017-04-13T09:58:25.278Z,735
2017-04-13T09:59:05.861Z,810
2017-04-13T09:59:46.442Z,860
2017-04-13T10:00:27.017Z,865
2017-04-13T10:02:55.181Z,935
2017-04-13T10:03:35.757Z,1005
2017-04-13T10:04:16.348Z,985
2017-04-13T10:04:56.929Z,965
2017-04-13T10:05:37.515Z,985
2017-04-13T10:06:18.095Z,965
2017-04-13T10:06:58.653Z,940
2017-04-13T10:07:39.228Z,940
2017-04-13T10:08:19.813Z,930
2017-04-13T10:09:00.384Z,885
2017-04-13T10:09:40.974Z,820
2017-04-13T10:10:21.550Z,805
2017-04-13T10:11:02.129Z,800
2017-04-13T10:11:42.709Z,795
2017-04-13T10:12:23.293Z,785
2017-04-13T10:13:03.865Z,790
2017-04-13T10:13:44.451Z,820
2017-04-13T10:14:25.041Z,885
2017-04-13T10:15:05.630Z,925
2017-04-13T10:15:46.214Z,950
2017-04-13T10:16:26.796Z,930
2017-04-13T10:17:07.383Z,905
2017-04-13T10:17:47.955Z,895
2017-04-13T10:18:28.542Z,895